Glenville, North Carolina
Current Conditions -  °F | °C
As of 11:15 PM on Wednesday 17 Dec 2014 (Local Time) from KLQK Reporting Station
Clear Clear  
Wind Chill: 35°   Ceiling: Unl
Heat Index: 35°   Visibility: 10mi
Dew Point: 33°   Wind: 0mph
Humidity: 91%   Direction: NA
Pressure: 30.09"   Gusts: NA
Location:  35.17°N, 83.13°W
Report Text: KLQK 180415Z AUTO 00000KT 10SM CLR 02/01 A3009 RMK AO2 T00190006
Loading
Personal Weather Stations






























Interactive Weather Map New forecast layout! Learn more

10-Day Weather Forecast

Advertisements
Track Severe Weather on mobile